Terminal Aerodrome Forecast
Issued by NWS

Current Version | Previous Version | Text Only | Print | Product List | Glossary On
Versions: 1 2 3 4 5 6 7 8 9 10 11 12 13
000
FTUS42 KMLB 271100
TAFISM
TAF
KISM 271122Z 2712/2812 03005KT P6SM SCT100
     FM271500 04012KT P6SM SCT040 SCT120
     FM272300 06007KT P6SM SCT040=

USA.gov is the U.S. government's official web portal to all federal, state and local government web resources and services.